sensor_id;sensor_type;location;lat;lon;timestamp;P1;durP1;ratioP1;P2;durP2;ratioP2
49592;SDS011;35499;51.482;4.264;2022-07-23T00:02:11;5.68;;;2.60;;
49592;SDS011;35499;51.482;4.264;2022-07-23T00:04:55;4.00;;;2.35;;
49592;SDS011;35499;51.482;4.264;2022-07-23T00:07:39;4.45;;;2.38;;
49592;SDS011;35499;51.482;4.264;2022-07-23T00:10:23;6.88;;;2.75;;
49592;SDS011;35499;51.482;4.264;2022-07-23T00:13:07;5.75;;;2.47;;
49592;SDS011;35499;51.482;4.264;2022-07-23T00:15:52;8.63;;;2.80;;
49592;SDS011;35499;51.482;4.264;2022-07-23T00:18:36;4.95;;;2.17;;
49592;SDS011;35499;51.482;4.264;2022-07-23T00:21:20;5.30;;;2.40;;
49592;SDS011;35499;51.482;4.264;2022-07-23T00:24:04;7.82;;;2.90;;
49592;SDS011;35499;51.482;4.264;2022-07-23T00:26:48;4.32;;;2.53;;
49592;SDS011;35499;51.482;4.264;2022-07-23T00:29:32;6.22;;;2.95;;
49592;SDS011;35499;51.482;4.264;2022-07-23T00:32:16;5.28;;;2.88;;
49592;SDS011;35499;51.482;4.264;2022-07-23T00:35:00;4.38;;;2.40;;
49592;SDS011;35499;51.482;4.264;2022-07-23T00:37:44;9.05;;;2.47;;
49592;SDS011;35499;51.482;4.264;2022-07-23T00:40:29;4.60;;;2.72;;
49592;SDS011;35499;51.482;4.264;2022-07-23T00:43:13;4.70;;;2.67;;
49592;SDS011;35499;51.482;4.264;2022-07-23T00:45:57;4.85;;;2.42;;
49592;SDS011;35499;51.482;4.264;2022-07-23T00:48:41;5.20;;;2.45;;
49592;SDS011;35499;51.482;4.264;2022-07-23T00:51:25;4.68;;;2.75;;
49592;SDS011;35499;51.482;4.264;2022-07-23T00:54:09;5.90;;;2.67;;
49592;SDS011;35499;51.482;4.264;2022-07-23T00:56:54;5.43;;;2.38;;
49592;SDS011;35499;51.482;4.264;2022-07-23T00:59:38;6.07;;;2.92;;
49592;SDS011;35499;51.482;4.264;2022-07-23T01:02:22;6.88;;;2.92;;
49592;SDS011;35499;51.482;4.264;2022-07-23T01:05:06;5.40;;;2.95;;
49592;SDS011;35499;51.482;4.264;2022-07-23T01:07:51;7.90;;;3.22;;
49592;SDS011;35499;51.482;4.264;2022-07-23T01:10:35;4.38;;;2.60;;
49592;SDS011;35499;51.482;4.264;2022-07-23T01:13:20;7.22;;;3.10;;
49592;SDS011;35499;51.482;4.264;2022-07-23T01:16:03;4.68;;;2.78;;
49592;SDS011;35499;51.482;4.264;2022-07-23T01:18:47;6.78;;;3.40;;
49592;SDS011;35499;51.482;4.264;2022-07-23T01:21:47;6.05;;;2.90;;
49592;SDS011;35499;51.482;4.264;2022-07-23T01:24:31;7.25;;;3.45;;
49592;SDS011;35499;51.482;4.264;2022-07-23T01:27:15;7.90;;;3.42;;
49592;SDS011;35499;51.482;4.264;2022-07-23T01:30:01;7.55;;;3.10;;
49592;SDS011;35499;51.482;4.264;2022-07-23T01:32:45;6.32;;;3.63;;
49592;SDS011;35499;51.482;4.264;2022-07-23T01:35:29;6.32;;;4.55;;
49592;SDS011;35499;51.482;4.264;2022-07-23T01:38:13;5.78;;;3.20;;
49592;SDS011;35499;51.482;4.264;2022-07-23T01:40:57;7.25;;;3.70;;
49592;SDS011;35499;51.482;4.264;2022-07-23T01:43:42;6.88;;;3.42;;
49592;SDS011;35499;51.482;4.264;2022-07-23T01:46:26;10.57;;;3.75;;
49592;SDS011;35499;51.482;4.264;2022-07-23T01:49:10;7.90;;;4.05;;
49592;SDS011;35499;51.482;4.264;2022-07-23T01:51:54;7.53;;;3.70;;
49592;SDS011;35499;51.482;4.264;2022-07-23T01:54:44;9.10;;;4.00;;
49592;SDS011;35499;51.482;4.264;2022-07-23T01:57:28;7.63;;;4.43;;
49592;SDS011;35499;51.482;4.264;2022-07-23T02:00:12;8.60;;;5.13;;
49592;SDS011;35499;51.482;4.264;2022-07-23T02:02:56;9.02;;;5.38;;
49592;SDS011;35499;51.482;4.264;2022-07-23T02:05:42;10.35;;;5.68;;
49592;SDS011;35499;51.482;4.264;2022-07-23T02:08:26;9.35;;;5.10;;
49592;SDS011;35499;51.482;4.264;2022-07-23T02:11:10;7.80;;;5.10;;
49592;SDS011;35499;51.482;4.264;2022-07-23T02:13:54;8.02;;;5.85;;
49592;SDS011;35499;51.482;4.264;2022-07-23T02:16:38;10.88;;;6.88;;
49592;SDS011;35499;51.482;4.264;2022-07-23T02:19:22;9.38;;;5.25;;
49592;SDS011;35499;51.482;4.264;2022-07-23T02:22:06;9.80;;;4.60;;
49592;SDS011;35499;51.482;4.264;2022-07-23T02:24:50;6.93;;;4.10;;
49592;SDS011;35499;51.482;4.264;2022-07-23T02:27:35;7.80;;;4.70;;
49592;SDS011;35499;51.482;4.264;2022-07-23T02:30:18;8.13;;;4.20;;
49592;SDS011;35499;51.482;4.264;2022-07-23T02:33:03;7.28;;;4.55;;
49592;SDS011;35499;51.482;4.264;2022-07-23T02:35:47;7.35;;;4.00;;
49592;SDS011;35499;51.482;4.264;2022-07-23T02:38:31;9.93;;;4.50;;
49592;SDS011;35499;51.482;4.264;2022-07-23T02:41:14;7.60;;;4.10;;
49592;SDS011;35499;51.482;4.264;2022-07-23T02:43:59;6.85;;;4.10;;
49592;SDS011;35499;51.482;4.264;2022-07-23T02:46:43;8.05;;;4.53;;
49592;SDS011;35499;51.482;4.264;2022-07-23T02:49:27;5.85;;;3.85;;
49592;SDS011;35499;51.482;4.264;2022-07-23T02:52:11;8.27;;;4.93;;
49592;SDS011;35499;51.482;4.264;2022-07-23T02:54:55;8.70;;;4.40;;
49592;SDS011;35499;51.482;4.264;2022-07-23T02:57:38;8.95;;;4.30;;
49592;SDS011;35499;51.482;4.264;2022-07-23T03:00:23;9.57;;;4.50;;
49592;SDS011;35499;51.482;4.264;2022-07-23T03:03:07;9.93;;;4.57;;
49592;SDS011;35499;51.482;4.264;2022-07-23T03:05:51;9.85;;;4.53;;
49592;SDS011;35499;51.482;4.264;2022-07-23T03:08:35;8.02;;;4.63;;
49592;SDS011;35499;51.482;4.264;2022-07-23T06:17:16;6.47;;;2.85;;
49592;SDS011;35499;51.482;4.264;2022-07-23T06:20:01;6.22;;;2.40;;
49592;SDS011;35499;51.482;4.264;2022-07-23T06:22:45;6.63;;;2.40;;
49592;SDS011;35499;51.482;4.264;2022-07-23T06:25:29;4.25;;;2.30;;
49592;SDS011;35499;51.482;4.264;2022-07-23T06:28:13;4.50;;;2.40;;
49592;SDS011;35499;51.482;4.264;2022-07-23T06:30:59;3.90;;;2.05;;
49592;SDS011;35499;51.482;4.264;2022-07-23T06:33:43;4.35;;;2.33;;
49592;SDS011;35499;51.482;4.264;2022-07-23T06:36:27;4.10;;;2.47;;
49592;SDS011;35499;51.482;4.264;2022-07-23T06:39:11;3.92;;;2.28;;
49592;SDS011;35499;51.482;4.264;2022-07-23T06:41:55;6.60;;;2.30;;
49592;SDS011;35499;51.482;4.264;2022-07-23T06:44:39;3.47;;;1.95;;
49592;SDS011;35499;51.482;4.264;2022-07-23T06:47:23;5.10;;;2.15;;
49592;SDS011;35499;51.482;4.264;2022-07-23T06:50:08;3.80;;;1.55;;
49592;SDS011;35499;51.482;4.264;2022-07-23T06:52:52;3.85;;;2.00;;
49592;SDS011;35499;51.482;4.264;2022-07-23T06:55:36;3.90;;;2.08;;
49592;SDS011;35499;51.482;4.264;2022-07-23T06:58:22;5.18;;;1.90;;
49592;SDS011;35499;51.482;4.264;2022-07-23T07:01:09;3.10;;;1.60;;
49592;SDS011;35499;51.482;4.264;2022-07-23T07:17:33;2.78;;;1.35;;
49592;SDS011;35499;51.482;4.264;2022-07-23T07:20:17;2.97;;;1.55;;
49592;SDS011;35499;51.482;4.264;2022-07-23T07:23:01;3.65;;;1.38;;
49592;SDS011;35499;51.482;4.264;2022-07-23T07:25:46;4.25;;;1.65;;
49592;SDS011;35499;51.482;4.264;2022-07-23T07:28:30;3.60;;;1.50;;
49592;SDS011;35499;51.482;4.264;2022-07-23T07:31:14;3.78;;;1.50;;
49592;SDS011;35499;51.482;4.264;2022-07-23T07:33:58;3.63;;;1.60;;
49592;SDS011;35499;51.482;4.264;2022-07-23T07:36:42;5.72;;;1.58;;
49592;SDS011;35499;51.482;4.264;2022-07-23T07:39:27;4.72;;;1.88;;
49592;SDS011;35499;51.482;4.264;2022-07-23T07:42:11;3.50;;;1.50;;
49592;SDS011;35499;51.482;4.264;2022-07-23T07:44:55;3.53;;;1.67;;
49592;SDS011;35499;51.482;4.264;2022-07-23T07:47:39;2.53;;;1.23;;
49592;SDS011;35499;51.482;4.264;2022-07-23T07:50:23;4.67;;;1.67;;
49592;SDS011;35499;51.482;4.264;2022-07-23T07:53:07;3.58;;;1.80;;
49592;SDS011;35499;51.482;4.264;2022-07-23T08:09:33;3.72;;;1.20;;
49592;SDS011;35499;51.482;4.264;2022-07-23T08:12:17;4.30;;;1.25;;
49592;SDS011;35499;51.482;4.264;2022-07-23T11:32:24;2.67;;;0.77;;
49592;SDS011;35499;51.482;4.264;2022-07-23T11:37:52;1.83;;;0.77;;
49592;SDS011;35499;51.482;4.264;2022-07-23T11:40:52;1.90;;;0.80;;
49592;SDS011;35499;51.482;4.264;2022-07-23T11:43:36;2.20;;;0.63;;
49592;SDS011;35499;51.482;4.264;2022-07-23T11:46:20;2.22;;;0.60;;
49592;SDS011;35499;51.482;4.264;2022-07-23T11:49:04;2.00;;;0.70;;
49592;SDS011;35499;51.482;4.264;2022-07-23T11:54:52;2.15;;;0.88;;
49592;SDS011;35499;51.482;4.264;2022-07-23T11:57:38;1.73;;;0.65;;
49592;SDS011;35499;51.482;4.264;2022-07-23T12:00:23;2.40;;;0.80;;
49592;SDS011;35499;51.482;4.264;2022-07-23T12:03:07;2.28;;;0.70;;
49592;SDS011;35499;51.482;4.264;2022-07-23T12:05:55;2.90;;;0.80;;
49592;SDS011;35499;51.482;4.264;2022-07-23T12:08:42;3.50;;;1.10;;
49592;SDS011;35499;51.482;4.264;2022-07-23T12:11:26;2.35;;;1.00;;
49592;SDS011;35499;51.482;4.264;2022-07-23T12:14:10;2.78;;;1.10;;
49592;SDS011;35499;51.482;4.264;2022-07-23T12:17:07;2.50;;;1.10;;
49592;SDS011;35499;51.482;4.264;2022-07-23T12:19:51;2.20;;;0.90;;
49592;SDS011;35499;51.482;4.264;2022-07-23T12:22:40;2.40;;;1.00;;
49592;SDS011;35499;51.482;4.264;2022-07-23T12:25:26;3.10;;;1.40;;
49592;SDS011;35499;51.482;4.264;2022-07-23T12:30:55;2.58;;;1.10;;
49592;SDS011;35499;51.482;4.264;2022-07-23T12:33:39;3.60;;;2.37;;
49592;SDS011;35499;51.482;4.264;2022-07-23T12:36:23;3.60;;;1.30;;
49592;SDS011;35499;51.482;4.264;2022-07-23T12:39:30;4.97;;;2.25;;
49592;SDS011;35499;51.482;4.264;2022-07-23T12:42:14;4.15;;;2.08;;
49592;SDS011;35499;51.482;4.264;2022-07-23T12:47:58;4.72;;;1.85;;
49592;SDS011;35499;51.482;4.264;2022-07-23T12:53:37;3.95;;;2.13;;
49592;SDS011;35499;51.482;4.264;2022-07-23T12:56:27;5.00;;;3.58;;
49592;SDS011;35499;51.482;4.264;2022-07-23T12:59:13;5.13;;;3.25;;
49592;SDS011;35499;51.482;4.264;2022-07-23T13:02:07;5.80;;;3.97;;
49592;SDS011;35499;51.482;4.264;2022-07-23T13:04:51;6.20;;;3.67;;
49592;SDS011;35499;51.482;4.264;2022-07-23T13:07:35;5.57;;;3.95;;
49592;SDS011;35499;51.482;4.264;2022-07-23T13:10:19;4.97;;;3.15;;
49592;SDS011;35499;51.482;4.264;2022-07-23T13:13:07;5.00;;;3.40;;
49592;SDS011;35499;51.482;4.264;2022-07-23T13:15:52;5.30;;;3.33;;
49592;SDS011;35499;51.482;4.264;2022-07-23T13:18:36;5.28;;;4.05;;
49592;SDS011;35499;51.482;4.264;2022-07-23T13:21:20;4.53;;;3.30;;
49592;SDS011;35499;51.482;4.264;2022-07-23T13:48:46;3.95;;;2.35;;
49592;SDS011;35499;51.482;4.264;2022-07-23T13:51:29;4.13;;;2.33;;
49592;SDS011;35499;51.482;4.264;2022-07-23T17:41:20;8.23;;;4.88;;
49592;SDS011;35499;51.482;4.264;2022-07-23T17:44:04;9.43;;;5.45;;
49592;SDS011;35499;51.482;4.264;2022-07-23T17:46:48;8.73;;;5.30;;
49592;SDS011;35499;51.482;4.264;2022-07-23T17:49:32;9.55;;;6.47;;
49592;SDS011;35499;51.482;4.264;2022-07-23T17:52:16;6.82;;;4.63;;
49592;SDS011;35499;51.482;4.264;2022-07-23T17:55:00;7.13;;;4.50;;
49592;SDS011;35499;51.482;4.264;2022-07-23T17:57:44;6.60;;;5.07;;
49592;SDS011;35499;51.482;4.264;2022-07-23T18:00:29;7.15;;;5.25;;
49592;SDS011;35499;51.482;4.264;2022-07-23T18:03:14;8.05;;;4.75;;
49592;SDS011;35499;51.482;4.264;2022-07-23T18:05:58;8.32;;;6.03;;
49592;SDS011;35499;51.482;4.264;2022-07-23T18:08:42;8.48;;;5.20;;
49592;SDS011;35499;51.482;4.264;2022-07-23T18:14:10;7.07;;;4.57;;
49592;SDS011;35499;51.482;4.264;2022-07-23T18:17:00;7.60;;;4.80;;
49592;SDS011;35499;51.482;4.264;2022-07-23T18:19:44;6.55;;;4.68;;
49592;SDS011;35499;51.482;4.264;2022-07-23T22:04:36;24.38;;;14.07;;
49592;SDS011;35499;51.482;4.264;2022-07-23T22:07:20;22.08;;;14.25;;
49592;SDS011;35499;51.482;4.264;2022-07-23T22:10:04;22.05;;;13.40;;
49592;SDS011;35499;51.482;4.264;2022-07-23T22:12:49;19.27;;;12.52;;
49592;SDS011;35499;51.482;4.264;2022-07-23T22:15:33;29.15;;;16.40;;
49592;SDS011;35499;51.482;4.264;2022-07-23T22:18:17;21.52;;;14.07;;
49592;SDS011;35499;51.482;4.264;2022-07-23T22:21:01;22.17;;;14.25;;
49592;SDS011;35499;51.482;4.264;2022-07-23T22:23:45;19.45;;;12.90;;
49592;SDS011;35499;51.482;4.264;2022-07-23T22:26:29;19.45;;;12.57;;
49592;SDS011;35499;51.482;4.264;2022-07-23T22:29:13;18.90;;;12.00;;
49592;SDS011;35499;51.482;4.264;2022-07-23T22:31:57;14.75;;;10.48;;
49592;SDS011;35499;51.482;4.264;2022-07-23T22:34:41;17.70;;;10.63;;
49592;SDS011;35499;51.482;4.264;2022-07-23T22:37:25;15.05;;;9.00;;
49592;SDS011;35499;51.482;4.264;2022-07-23T22:40:09;12.98;;;8.75;;
49592;SDS011;35499;51.482;4.264;2022-07-23T22:42:54;17.48;;;8.07;;
49592;SDS011;35499;51.482;4.264;2022-07-23T22:45:38;15.57;;;8.25;;
49592;SDS011;35499;51.482;4.264;2022-07-23T22:48:21;11.43;;;6.78;;
49592;SDS011;35499;51.482;4.264;2022-07-23T22:51:06;12.75;;;7.47;;
49592;SDS011;35499;51.482;4.264;2022-07-23T22:53:49;14.75;;;8.80;;
49592;SDS011;35499;51.482;4.264;2022-07-23T22:56:34;10.88;;;7.70;;
49592;SDS011;35499;51.482;4.264;2022-07-23T22:59:18;19.95;;;8.70;;
49592;SDS011;35499;51.482;4.264;2022-07-23T23:02:02;13.95;;;9.07;;
49592;SDS011;35499;51.482;4.264;2022-07-23T23:04:46;14.07;;;8.15;;
49592;SDS011;35499;51.482;4.264;2022-07-23T23:07:30;10.45;;;7.10;;
49592;SDS011;35499;51.482;4.264;2022-07-23T23:10:14;11.45;;;7.18;;
49592;SDS011;35499;51.482;4.264;2022-07-23T23:12:58;12.63;;;6.70;;
49592;SDS011;35499;51.482;4.264;2022-07-23T23:15:42;13.43;;;7.18;;
49592;SDS011;35499;51.482;4.264;2022-07-23T23:18:26;11.15;;;7.68;;
49592;SDS011;35499;51.482;4.264;2022-07-23T23:21:10;12.50;;;6.93;;
49592;SDS011;35499;51.482;4.264;2022-07-23T23:23:54;11.05;;;7.45;;
49592;SDS011;35499;51.482;4.264;2022-07-23T23:26:38;12.68;;;7.78;;
49592;SDS011;35499;51.482;4.264;2022-07-23T23:29:22;12.90;;;8.45;;
49592;SDS011;35499;51.482;4.264;2022-07-23T23:32:06;14.15;;;7.43;;
49592;SDS011;35499;51.482;4.264;2022-07-23T23:34:50;19.92;;;8.18;;
49592;SDS011;35499;51.482;4.264;2022-07-23T23:37:34;16.20;;;7.90;;
49592;SDS011;35499;51.482;4.264;2022-07-23T23:40:18;12.93;;;7.93;;
49592;SDS011;35499;51.482;4.264;2022-07-23T23:43:02;14.32;;;8.32;;
49592;SDS011;35499;51.482;4.264;2022-07-23T23:45:46;12.50;;;8.02;;
49592;SDS011;35499;51.482;4.264;2022-07-23T23:48:30;13.60;;;7.97;;
49592;SDS011;35499;51.482;4.264;2022-07-23T23:51:14;14.57;;;7.45;;
49592;SDS011;35499;51.482;4.264;2022-07-23T23:53:58;12.02;;;8.50;;
49592;SDS011;35499;51.482;4.264;2022-07-23T23:56:42;14.38;;;9.73;;
49592;SDS011;35499;51.482;4.264;2022-07-23T23:59:26;15.18;;;9.30;;
